Ship Status Report: callsign VWFQ

sailwx.info

Track history (hours):
 
Tides and Currents Weather Stations Pressure Air Temp Water Temp Dewpoint Dewpoint Depression Visibility Wind Speed Wind Dir Waves Ship Positions

Callsign VWFQ (name unknown)

Last reported at 2018-Feb-24 09:17 UTC. Time now 2018-Feb-24 13:55 UTC.
Position N 12°36' E 080°12'.

Wind from 070 at 12 knots

Barometer 1010.8 mb
Air temperature 27.5 ° C

Date/timePositionNaut miles runAvg speedWind from/ knotsBaromVisibWave heightAir tempDewpointWater temp
2018-Feb-24 09:17N 12°36' E 080°12'19 5.4 070 / 121010.8 27.5
2018-Feb-24 05:47N 12°18' E 080°06'55 1.9 060 / 101014.5 27.2
2018-Feb-23 00:17N 11°24' E 079°54'0 0.0 030 / 61010.3 25.2
2018-Feb-22 20:47N 11°24' E 079°54'0 0.0 060 / 81010.0 25.3
2018-Feb-22 18:17N 11°24' E 079°54'0 0.0 050 / 121011.1 25.6
2018-Feb-22 15:17N 11°24' E 079°54'0 0.0 060 / 121010.7 25.7
2018-Feb-22 12:17N 11°24' E 079°54'6 1.7 050 / 121008.4 26.4
2018-Feb-22 08:47N 11°24' E 079°48'18 3.3 040 / 81008.1 26.1
2018-Feb-22 03:17N 11°42' E 079°48'0 0.0 330 / 101011.2 24.3
2018-Feb-22 00:17N 11°42' E 079°48'0 0.0 320 / 81009.7 23.7
2018-Feb-21 21:17N 11°42' E 079°48'0 0.0 040 / 61009.5 25.2
2018-Feb-21 18:17N 11°42' E 079°48'0 0.0 040 / 81010.8 25.6
2018-Feb-21 15:17N 11°42' E 079°48'8 2.8 050 / 101010.5 25.9
2018-Feb-21 12:17N 11°48' E 079°54'19 6.3 050 / 101008.3 27.0
2018-Feb-21 09:17N 12°06' E 080°00'21 6.1 050 / 101008.9 27.7
2018-Feb-21 05:47N 12°24' E 080°12'13 5.3 050 / 81011.9 27.7
2018-Feb-21 03:17N 12°36' E 080°18'18 3.0 050 / 101011.7 27.0
2018-Feb-20 21:17N 12°54' E 080°18'0 0.0 050 / 61009.8 25.5
2018-Feb-20 17:47N 12°54' E 080°18'6 2.4 060 / 61011.7 25.9
2018-Feb-20 15:17N 13°00' E 080°18'6 1.7 040 / 101011.3 26.2
2018-Feb-20 11:47N 13°06' E 080°18'0 0.0 070 / 101009.6 27.0
2018-Feb-20 09:17N 13°06' E 080°18'0 0.0 080 / 81010.2 27.2
2018-Feb-20 06:17N 13°06' E 080°18'0 0.0 060 / 61013.2 27.0
2018-Feb-20 03:17N 13°06' E 080°18'0 0.0 050 / 41013.2 26.3
2018-Feb-20 00:17N 13°06' E 080°18'0 0.0 330 / 21011.7 24.1
2018-Feb-19 20:47N 13°06' E 080°18'0 0.0 080 / 61011.3 26.0
2018-Feb-19 18:17N 13°06' E 080°18'0 0.0 080 / 61012.5 26.1
2018-Feb-19 15:17N 13°06' E 080°18'0 0.0 080 / 61012.4 26.3
2018-Feb-19 12:17N 13°06' E 080°18'0 0.0 110 / 61010.8 27.0
2018-Feb-19 09:17N 13°06' E 080°18'0 0.0 110 / 81010.7 27.0
2018-Feb-19 05:47N 13°06' E 080°18'0 0.0 100 / 61013.4 27.1
2018-Feb-19 03:17N 13°06' E 080°18'0 0.0 070 / 21013.6 26.4
2018-Feb-18 23:47N 13°06' E 080°18'0 0.0 110 / 21011.0 25.3
2018-Feb-18 21:17N 13°06' E 080°18'0 0.0 080 / 41010.4 25.2
2018-Feb-18 18:17N 13°06' E 080°18'0 0.0 100 / 61011.8 26.0
2018-Feb-18 15:17N 13°06' E 080°18'0 0.0 100 / 61012.0 26.2
2018-Feb-18 12:17N 13°06' E 080°18'0 0.0 110 / 81010.2 26.9
2018-Feb-18 09:17N 13°06' E 080°18'0 0.0 120 / 61010.3 27.3
2018-Feb-18 06:17N 13°06' E 080°18'0 0.0 130 / 41012.8 27.8
2018-Feb-18 03:17N 13°06' E 080°18'0 0.0 350 / 21012.8 26.2
2018-Feb-17 23:47N 13°06' E 080°18'0 0.0 310 / 41010.4 24.0
2018-Feb-17 18:17N 13°06' E 080°18'0 0.0 110 / 41011.4 26.1
2018-Feb-17 15:17N 13°06' E 080°18'0 0.0 110 / 61011.6 26.4
2018-Feb-17 12:17N 13°06' E 080°18'0 0.0 120 / 61010.0 27.0
2018-Feb-17 06:17N 13°06' E 080°18'0 0.0 130 / 61013.5 27.6
2018-Feb-17 02:47N 13°06' E 080°18'0 0.0 280 / 61013.6 25.1
2018-Feb-17 00:17N 13°06' E 080°18'0 0.0 280 / 41012.4 23.6
2018-Feb-16 21:17N 13°06' E 080°18'0 0.0 160 / 21012.6 25.3
2018-Feb-16 18:17N 13°06' E 080°18'0 0.0 120 / 61014.1 26.0
2018-Feb-16 15:17N 13°06' E 080°18'0 0.0 080 / 81014.7 26.1
2018-Feb-16 12:17N 13°06' E 080°18'0 0.0 070 / 101013.4 26.8
2018-Feb-16 09:17N 13°06' E 080°18'0 0.0 060 / 101014.0 26.5
2018-Feb-16 05:47N 13°06' E 080°18'0 0.0 050 / 61017.2 26.6
2018-Feb-16 03:17N 13°06' E 080°18'0 0.0 030 / 41017.4 26.5
2018-Feb-16 00:17N 13°06' E 080°18'0 0.0 310 / 41015.7 24.2
2018-Feb-15 21:17N 13°06' E 080°18'0 0.0 060 / 81015.7 25.8
2018-Feb-15 15:17N 13°06' E 080°18'0 0.0 060 / 141016.6 26.3
2018-Feb-15 12:17N 13°06' E 080°18'0 0.0 050 / 141014.8 26.7
2018-Feb-15 08:47N 13°06' E 080°18'0 0.0 050 / 141015.1 27.0
2018-Feb-15 06:17N 13°06' E 080°18'0 0.0 050 / 161017.5 27.2
2018-Feb-15 03:17N 13°06' E 080°18'0 0.0 030 / 61017.9 26.1
2018-Feb-15 00:17N 13°06' E 080°18'0 0.0 050 / 121015.7 26.1
2018-Feb-14 21:17N 13°06' E 080°18'0 0.0 060 / 141015.6 26.2
2018-Feb-14 18:17N 13°06' E 080°18'0 0.0 060 / 141017.3 26.4
2018-Feb-14 12:17N 13°06' E 080°18'0 0.0 060 / 121015.0 26.8
2018-Feb-14 09:17N 13°06' E 080°18'   060 / 141015.1 26.7
Track history (hours):
 
Tides and Currents Weather Stations Pressure Air Temp Water Temp Dewpoint Dewpoint Depression Visibility Wind Speed Wind Dir Waves Ship Positions

Callsign VWFQ (name unknown)

Last reported at 2018-Feb-24 09:17 UTC. Time now 2018-Feb-24 13:55 UTC.
Position N 12°36' E 080°12'.

Wind from 070 at 12 knots

Barometer 1010.8 mb
Air temperature 27.5 ° C

Date/timePositionNaut miles runAvg speedWind from/ knotsBaromVisibWave heightAir tempDewpointWater temp
2018-Feb-24 09:17N 12°36' E 080°12'19 5.4 070 / 121010.8 27.5
2018-Feb-24 05:47N 12°18' E 080°06'55 1.9 060 / 101014.5 27.2
2018-Feb-23 00:17N 11°24' E 079°54'0 0.0 030 / 61010.3 25.2
2018-Feb-22 20:47N 11°24' E 079°54'0 0.0 060 / 81010.0 25.3
2018-Feb-22 18:17N 11°24' E 079°54'0 0.0 050 / 121011.1 25.6
2018-Feb-22 15:17N 11°24' E 079°54'0 0.0 060 / 121010.7 25.7
2018-Feb-22 12:17N 11°24' E 079°54'6 1.7 050 / 121008.4 26.4
2018-Feb-22 08:47N 11°24' E 079°48'18 3.3 040 / 81008.1 26.1
2018-Feb-22 03:17N 11°42' E 079°48'0 0.0 330 / 101011.2 24.3
2018-Feb-22 00:17N 11°42' E 079°48'0 0.0 320 / 81009.7 23.7
2018-Feb-21 21:17N 11°42' E 079°48'0 0.0 040 / 61009.5 25.2
2018-Feb-21 18:17N 11°42' E 079°48'0 0.0 040 / 81010.8 25.6
2018-Feb-21 15:17N 11°42' E 079°48'8 2.8 050 / 101010.5 25.9
2018-Feb-21 12:17N 11°48' E 079°54'19 6.3 050 / 101008.3 27.0
2018-Feb-21 09:17N 12°06' E 080°00'21 6.1 050 / 101008.9 27.7
2018-Feb-21 05:47N 12°24' E 080°12'13 5.3 050 / 81011.9 27.7
2018-Feb-21 03:17N 12°36' E 080°18'18 3.0 050 / 101011.7 27.0
2018-Feb-20 21:17N 12°54' E 080°18'0 0.0 050 / 61009.8 25.5
2018-Feb-20 17:47N 12°54' E 080°18'6 2.4 060 / 61011.7 25.9
2018-Feb-20 15:17N 13°00' E 080°18'6 1.7 040 / 101011.3 26.2
2018-Feb-20 11:47N 13°06' E 080°18'0 0.0 070 / 101009.6 27.0
2018-Feb-20 09:17N 13°06' E 080°18'0 0.0 080 / 81010.2 27.2
2018-Feb-20 06:17N 13°06' E 080°18'0 0.0 060 / 61013.2 27.0
2018-Feb-20 03:17N 13°06' E 080°18'0 0.0 050 / 41013.2 26.3
2018-Feb-20 00:17N 13°06' E 080°18'0 0.0 330 / 21011.7 24.1
2018-Feb-19 20:47N 13°06' E 080°18'0 0.0 080 / 61011.3 26.0
2018-Feb-19 18:17N 13°06' E 080°18'0 0.0 080 / 61012.5 26.1
2018-Feb-19 15:17N 13°06' E 080°18'0 0.0 080 / 61012.4 26.3
2018-Feb-19 12:17N 13°06' E 080°18'0 0.0 110 / 61010.8 27.0
2018-Feb-19 09:17N 13°06' E 080°18'0 0.0 110 / 81010.7 27.0
2018-Feb-19 05:47N 13°06' E 080°18'0 0.0 100 / 61013.4 27.1
2018-Feb-19 03:17N 13°06' E 080°18'0 0.0 070 / 21013.6 26.4
2018-Feb-18 23:47N 13°06' E 080°18'0 0.0 110 / 21011.0 25.3
2018-Feb-18 21:17N 13°06' E 080°18'0 0.0 080 / 41010.4 25.2
2018-Feb-18 18:17N 13°06' E 080°18'0 0.0 100 / 61011.8 26.0
2018-Feb-18 15:17N 13°06' E 080°18'0 0.0 100 / 61012.0 26.2
2018-Feb-18 12:17N 13°06' E 080°18'0 0.0 110 / 81010.2 26.9
2018-Feb-18 09:17N 13°06' E 080°18'0 0.0 120 / 61010.3 27.3
2018-Feb-18 06:17N 13°06' E 080°18'0 0.0 130 / 41012.8 27.8
2018-Feb-18 03:17N 13°06' E 080°18'0 0.0 350 / 21012.8 26.2
2018-Feb-17 23:47N 13°06' E 080°18'0 0.0 310 / 41010.4 24.0
2018-Feb-17 18:17N 13°06' E 080°18'0 0.0 110 / 41011.4 26.1
2018-Feb-17 15:17N 13°06' E 080°18'0 0.0 110 / 61011.6 26.4
2018-Feb-17 12:17N 13°06' E 080°18'0 0.0 120 / 61010.0 27.0
2018-Feb-17 06:17N 13°06' E 080°18'0 0.0 130 / 61013.5 27.6
2018-Feb-17 02:47N 13°06' E 080°18'0 0.0 280 / 61013.6 25.1
2018-Feb-17 00:17N 13°06' E 080°18'0 0.0 280 / 41012.4 23.6
2018-Feb-16 21:17N 13°06' E 080°18'0 0.0 160 / 21012.6 25.3
2018-Feb-16 18:17N 13°06' E 080°18'0 0.0 120 / 61014.1 26.0
2018-Feb-16 15:17N 13°06' E 080°18'0 0.0 080 / 81014.7 26.1
2018-Feb-16 12:17N 13°06' E 080°18'0 0.0 070 / 101013.4 26.8
2018-Feb-16 09:17N 13°06' E 080°18'0 0.0 060 / 101014.0 26.5
2018-Feb-16 05:47N 13°06' E 080°18'0 0.0 050 / 61017.2 26.6
2018-Feb-16 03:17N 13°06' E 080°18'0 0.0 030 / 41017.4 26.5
2018-Feb-16 00:17N 13°06' E 080°18'0 0.0 310 / 41015.7 24.2
2018-Feb-15 21:17N 13°06' E 080°18'0 0.0 060 / 81015.7 25.8
2018-Feb-15 15:17N 13°06' E 080°18'0 0.0 060 / 141016.6 26.3
2018-Feb-15 12:17N 13°06' E 080°18'0 0.0 050 / 141014.8 26.7
2018-Feb-15 08:47N 13°06' E 080°18'0 0.0 050 / 141015.1 27.0
2018-Feb-15 06:17N 13°06' E 080°18'0 0.0 050 / 161017.5 27.2
2018-Feb-15 03:17N 13°06' E 080°18'0 0.0 030 / 61017.9 26.1
2018-Feb-15 00:17N 13°06' E 080°18'0 0.0 050 / 121015.7 26.1
2018-Feb-14 21:17N 13°06' E 080°18'0 0.0 060 / 141015.6 26.2
2018-Feb-14 18:17N 13°06' E 080°18'0 0.0 060 / 141017.3 26.4
2018-Feb-14 12:17N 13°06' E 080°18'0 0.0 060 / 121015.0 26.8
2018-Feb-14 09:17N 13°06' E 080°18'   060 / 141015.1 26.7

Dump ship's entire track history